createdAt,value
2019-01-10T00:03:04.946Z,9.60
2019-01-10T00:05:15.977Z,10.60
2019-01-10T00:07:26.754Z,11.87
2019-01-10T00:09:37.572Z,8.73
2019-01-10T00:11:48.371Z,7.97
2019-01-10T00:13:59.211Z,10.37
2019-01-10T00:16:10.009Z,9.90
2019-01-10T00:18:20.794Z,10.03
2019-01-10T00:20:31.620Z,8.30
2019-01-10T00:22:42.432Z,10.23
2019-01-10T00:24:53.244Z,11.27
2019-01-10T00:27:04.033Z,8.53
2019-01-10T00:29:14.830Z,9.77
2019-01-10T00:31:25.765Z,9.00
2019-01-10T00:33:36.557Z,9.33
2019-01-10T00:35:47.377Z,9.23
2019-01-10T00:37:58.165Z,7.93
2019-01-10T00:40:50.635Z,10.03
2019-01-10T00:43:01.538Z,8.63
2019-01-10T00:45:54.002Z,8.97
2019-01-10T00:48:04.802Z,8.33
2019-01-10T00:50:57.271Z,11.13
2019-01-10T00:53:08.088Z,11.27
2019-01-10T00:55:38.882Z,12.77
2019-01-10T00:57:49.704Z,11.03
2019-01-10T01:00:00.550Z,10.13
2019-01-10T01:02:11.336Z,13.33
2019-01-10T01:04:22.144Z,12.33
2019-01-10T01:06:32.962Z,9.00
2019-01-10T01:08:43.857Z,11.37
2019-01-10T01:10:54.667Z,11.70
2019-01-10T01:13:47.121Z,9.87
2019-01-10T01:15:57.932Z,10.10
2019-01-10T01:18:08.727Z,10.13
2019-01-10T01:21:01.206Z,9.03
2019-01-10T01:23:12.013Z,11.23
2019-01-10T01:25:22.810Z,12.17
2019-01-10T01:27:33.631Z,10.50
2019-01-10T01:29:44.468Z,10.37
2019-01-10T01:31:55.311Z,11.40
2019-01-10T01:34:06.207Z,11.63
2019-01-10T01:36:17.114Z,10.27
2019-01-10T01:38:27.941Z,11.10
2019-01-10T01:40:38.755Z,11.17
2019-01-10T01:42:49.568Z,10.47
2019-01-10T01:45:00.383Z,13.77
2019-01-10T01:47:11.194Z,10.10
2019-01-10T01:50:03.734Z,9.67
2019-01-10T01:52:14.636Z,12.87
2019-01-10T01:54:25.440Z,9.27
2019-01-10T01:56:36.232Z,10.23
2019-01-10T01:58:47.053Z,9.63
2019-01-10T02:00:57.842Z,11.60
2019-01-10T02:03:08.671Z,10.60
2019-01-10T02:05:19.565Z,11.67
2019-01-10T02:07:30.362Z,9.63
2019-01-10T02:09:41.188Z,10.27
2019-01-10T02:14:24.464Z,10.33
2019-01-10T02:16:35.261Z,8.73
2019-01-10T02:18:46.083Z,12.90
2019-01-10T02:20:56.865Z,11.00
2019-01-10T02:23:07.879Z,11.43
2019-01-10T02:25:18.798Z,10.53
2019-01-10T02:27:29.605Z,9.63
2019-01-10T02:29:40.414Z,10.70
2019-01-10T02:31:51.221Z,10.70
2019-01-10T02:34:02.131Z,11.70
2019-01-10T02:36:12.934Z,11.03
2019-01-10T02:38:23.732Z,12.43
2019-01-10T02:40:34.659Z,11.80
2019-01-10T02:42:45.465Z,10.13
2019-01-10T02:44:56.284Z,8.83
2019-01-10T02:47:07.086Z,9.67
2019-01-10T02:49:17.897Z,10.67
2019-01-10T02:51:28.723Z,9.63
2019-01-10T02:53:39.513Z,12.53
2019-01-10T02:55:50.343Z,11.40
2019-01-10T02:58:01.138Z,11.93
2019-01-10T03:00:53.637Z,11.03
2019-01-10T03:03:04.429Z,10.87
2019-01-10T03:05:15.319Z,11.00
2019-01-10T03:07:26.132Z,8.93
2019-01-10T03:09:36.923Z,11.00
2019-01-10T03:11:47.748Z,12.00
2019-01-10T03:13:58.557Z,12.37
2019-01-10T03:16:09.369Z,14.27
2019-01-10T03:18:20.162Z,9.60
2019-01-10T03:20:30.959Z,14.03
2019-01-10T03:22:41.786Z,13.43
2019-01-10T03:24:52.585Z,11.17
2019-01-10T03:27:03.392Z,12.37
2019-01-10T03:29:14.211Z,11.70
2019-01-10T03:31:25.039Z,10.73
2019-01-10T03:33:35.954Z,12.63
2019-01-10T03:35:46.848Z,10.73
2019-01-10T03:37:57.658Z,12.47
2019-01-10T03:40:50.135Z,9.77
2019-01-10T03:43:00.960Z,11.43
2019-01-10T03:45:53.406Z,12.60
2019-01-10T03:48:04.215Z,12.10
2019-01-10T03:50:56.670Z,13.43
2019-01-10T03:53:07.501Z,12.07
2019-01-10T03:55:18.300Z,12.80
2019-01-10T03:57:29.145Z,10.90
2019-01-10T03:59:40.040Z,12.90
2019-01-10T04:01:50.848Z,14.83
2019-01-10T04:04:01.697Z,13.43
2019-01-10T04:06:12.477Z,11.07
2019-01-10T04:08:23.293Z,13.27
2019-01-10T04:10:34.072Z,12.07
2019-01-10T04:12:45.016Z,12.83
2019-01-10T04:14:55.798Z,12.20
2019-01-10T04:17:06.719Z,12.20
2019-01-10T04:19:17.539Z,15.80
2019-01-10T04:21:28.337Z,14.83
2019-01-10T04:23:39.140Z,14.67
2019-01-10T04:25:49.938Z,15.27
2019-01-10T04:28:00.741Z,15.40
2019-01-10T04:30:33.333Z,14.03
2019-01-10T04:32:44.137Z,14.10
2019-01-10T04:34:54.951Z,14.63
2019-01-10T04:37:05.790Z,12.83
2019-01-10T04:39:16.608Z,12.93
2019-01-10T04:41:27.499Z,14.90
2019-01-10T04:43:38.293Z,14.53
2019-01-10T04:45:49.093Z,13.30
2019-01-10T04:47:59.892Z,12.60
2019-01-10T04:50:52.390Z,12.40
2019-01-10T04:53:03.175Z,10.80
2019-01-10T04:55:13.997Z,10.93
2019-01-10T04:57:24.823Z,14.27
2019-01-10T04:59:35.734Z,14.33
2019-01-10T05:01:46.539Z,11.00
2019-01-10T05:03:57.344Z,12.30
2019-01-10T05:06:08.153Z,12.83
2019-01-10T05:08:18.951Z,11.83
2019-01-10T05:10:29.774Z,12.17
2019-01-10T05:12:41.820Z,12.40
2019-01-10T05:14:53.265Z,12.87
2019-01-10T05:17:04.176Z,14.40
2019-01-10T05:19:14.989Z,12.07
2019-01-10T05:21:25.804Z,14.40
2019-01-10T05:23:36.589Z,15.13
2019-01-10T05:25:47.397Z,17.07
2019-01-10T05:27:58.220Z,13.40
2019-01-10T05:30:50.667Z,18.37
2019-01-10T05:33:01.496Z,14.90
2019-01-10T05:35:12.406Z,13.27
2019-01-10T05:37:23.231Z,13.50
2019-01-10T05:39:34.039Z,12.63
2019-01-10T05:41:44.859Z,12.10
2019-01-10T05:43:55.653Z,13.13
2019-01-10T05:46:06.453Z,12.93
2019-01-10T05:48:17.319Z,11.87
2019-01-10T05:50:28.092Z,13.53
2019-01-10T05:52:39.015Z,13.83
2019-01-10T05:54:49.834Z,13.60
2019-01-10T05:57:00.623Z,13.47
2019-01-10T05:59:11.453Z,11.87
2019-01-10T06:01:22.347Z,11.33
2019-01-10T06:03:33.159Z,12.67
2019-01-10T06:05:43.948Z,14.00
2019-01-10T06:07:54.858Z,14.63
2019-01-10T06:10:47.318Z,12.47
2019-01-10T06:12:58.124Z,12.67
2019-01-10T06:15:50.577Z,16.27
2019-01-10T06:18:01.380Z,14.80
2019-01-10T06:20:32.041Z,13.97
2019-01-10T06:22:42.843Z,13.67
2019-01-10T06:24:53.660Z,13.37
2019-01-10T06:27:04.445Z,12.70
2019-01-10T06:29:15.252Z,13.90
2019-01-10T06:31:26.059Z,15.40
2019-01-10T06:33:36.910Z,13.70
2019-01-10T06:35:47.725Z,15.37
2019-01-10T06:37:58.632Z,13.57
2019-01-10T06:40:51.105Z,16.73
2019-01-10T06:43:01.909Z,15.73
2019-01-10T06:45:54.368Z,15.57
2019-01-10T06:48:05.156Z,13.93
2019-01-10T06:50:57.638Z,14.63
2019-01-10T06:53:08.446Z,12.77
2019-01-10T06:55:19.263Z,16.83
2019-01-10T06:57:30.054Z,13.97
2019-01-10T06:59:40.900Z,14.23
2019-01-10T07:01:51.705Z,14.10
2019-01-10T07:04:02.685Z,13.07
2019-01-10T07:06:13.498Z,12.87
2019-01-10T07:08:24.300Z,14.30
2019-01-10T07:10:35.113Z,16.07
2019-01-10T07:13:05.791Z,13.00
2019-01-10T07:15:16.638Z,12.70
2019-01-10T07:17:27.456Z,18.97
2019-01-10T07:19:58.128Z,15.33
2019-01-10T07:22:08.942Z,15.83
2019-01-10T07:24:21.186Z,16.60
2019-01-10T07:26:32.531Z,18.90
2019-01-10T07:28:43.430Z,12.93
2019-01-10T07:33:32.688Z,14.07
2019-01-10T07:36:25.142Z,13.53
2019-01-10T07:38:35.971Z,15.00
2019-01-10T07:40:46.768Z,16.47
2019-01-10T07:42:57.724Z,15.43
2019-01-10T07:45:50.163Z,16.67
2019-01-10T07:48:42.614Z,16.20
2019-01-10T07:50:53.414Z,14.80
2019-01-10T07:53:04.333Z,15.20
2019-01-10T07:55:15.129Z,14.37
2019-01-10T07:57:25.949Z,15.73
2019-01-10T07:59:36.756Z,14.67
2019-01-10T08:01:47.645Z,17.83
2019-01-10T08:03:58.475Z,15.83
2019-01-10T08:06:09.386Z,20.10
2019-01-10T08:08:20.318Z,16.67
2019-01-10T08:13:03.692Z,15.50
2019-01-10T08:15:56.127Z,13.87
2019-01-10T08:18:06.940Z,17.07
2019-01-10T08:20:18.147Z,14.13
2019-01-10T08:22:30.703Z,16.20
2019-01-10T08:24:41.513Z,17.23
2019-01-10T08:26:52.312Z,16.90
2019-01-10T08:29:03.132Z,15.57
2019-01-10T08:31:13.943Z,14.60
2019-01-10T08:33:24.779Z,18.37
2019-01-10T08:35:35.657Z,16.10
2019-01-10T08:37:46.568Z,19.63
2019-01-10T08:39:57.383Z,14.83
2019-01-10T08:42:08.174Z,16.17
2019-01-10T08:44:19.013Z,18.77
2019-01-10T08:46:29.777Z,16.90
2019-01-10T08:48:40.574Z,17.47
2019-01-10T08:50:51.388Z,18.40
2019-01-10T08:53:02.287Z,24.03
2019-01-10T08:55:13.114Z,14.87
2019-01-10T08:57:23.917Z,19.00
2019-01-10T08:59:34.710Z,18.37
2019-01-10T09:01:45.525Z,19.73
2019-01-10T09:03:56.337Z,18.23
2019-01-10T09:06:08.214Z,16.97
2019-01-10T09:08:19.968Z,16.27
2019-01-10T09:10:30.892Z,13.63
2019-01-10T09:12:41.685Z,14.47
2019-01-10T09:14:52.499Z,14.43
2019-01-10T09:17:03.406Z,13.77
2019-01-10T09:19:14.311Z,16.30
2019-01-10T09:21:25.118Z,16.30
2019-01-10T09:23:55.817Z,17.13
2019-01-10T09:26:06.643Z,15.27
2019-01-10T09:28:17.446Z,15.60
2019-01-10T09:30:28.281Z,15.30
2019-01-10T09:32:39.103Z,14.93
2019-01-10T09:34:50.000Z,13.70
2019-01-10T09:37:08.233Z,16.90
2019-01-10T09:39:19.053Z,15.80
2019-01-10T09:41:29.871Z,12.27
2019-01-10T09:43:40.843Z,14.47
2019-01-10T09:45:51.653Z,13.90
2019-01-10T09:48:02.667Z,13.77
2019-01-10T09:50:55.144Z,12.77
2019-01-10T09:53:06.059Z,14.70
2019-01-10T09:55:16.870Z,12.40
2019-01-10T09:57:27.690Z,13.30
2019-01-10T09:59:38.490Z,14.03
2019-01-10T10:02:31.044Z,13.17
2019-01-10T10:04:41.836Z,13.57
2019-01-10T10:06:52.649Z,14.60
2019-01-10T10:09:45.099Z,12.13
2019-01-10T10:11:55.932Z,12.30
2019-01-10T10:14:06.918Z,13.97
2019-01-10T10:16:17.813Z,14.83
2019-01-10T10:18:28.654Z,13.57
2019-01-10T10:20:39.506Z,13.87
2019-01-10T10:22:50.400Z,14.30
2019-01-10T10:25:01.414Z,14.87
2019-01-10T10:27:12.204Z,15.53
2019-01-10T10:29:23.019Z,13.93
2019-01-10T10:31:33.953Z,17.47
2019-01-10T10:33:44.909Z,14.83
2019-01-10T10:35:55.720Z,18.30
2019-01-10T10:38:06.543Z,15.20
2019-01-10T10:40:59.006Z,13.97
2019-01-10T10:43:09.834Z,14.53
2019-01-10T10:45:20.770Z,13.40
2019-01-10T10:47:31.564Z,12.20
2019-01-10T10:49:42.392Z,16.53
2019-01-10T10:51:53.231Z,16.57
2019-01-10T10:54:04.151Z,15.23
2019-01-10T10:56:15.005Z,13.47
2019-01-10T10:58:25.943Z,13.30
2019-01-10T11:00:36.736Z,13.50
2019-01-10T11:02:47.531Z,13.93
2019-01-10T11:04:58.335Z,11.93
2019-01-10T11:07:09.123Z,12.03
2019-01-10T11:09:19.962Z,14.83
2019-01-10T11:11:30.758Z,13.17
2019-01-10T11:13:41.568Z,13.30
2019-01-10T11:15:52.401Z,14.23
2019-01-10T11:18:03.388Z,12.87
2019-01-10T11:20:55.862Z,12.40
2019-01-10T11:23:10.875Z,11.17
2019-01-10T11:26:01.217Z,11.90
2019-01-10T11:28:12.010Z,14.90
2019-01-10T11:30:22.923Z,11.43
2019-01-10T11:32:33.733Z,16.67
2019-01-10T11:34:44.558Z,16.53
2019-01-10T11:36:55.371Z,15.17
2019-01-10T11:39:47.847Z,12.60
2019-01-10T11:41:58.657Z,16.23
2019-01-10T11:44:09.569Z,13.60
2019-01-10T11:46:20.502Z,15.13
2019-01-10T11:48:31.309Z,17.17
2019-01-10T11:50:42.126Z,17.13
2019-01-10T11:52:52.932Z,14.17
2019-01-10T11:55:45.402Z,13.77
2019-01-10T11:57:56.185Z,13.20
2019-01-10T12:00:27.397Z,15.33
2019-01-10T12:02:38.200Z,15.00
2019-01-10T12:04:48.998Z,12.97
2019-01-10T12:06:59.924Z,11.13
2019-01-10T12:09:10.732Z,12.83
2019-01-10T12:11:21.549Z,14.40
2019-01-10T12:13:32.394Z,14.93
2019-01-10T12:15:43.211Z,11.73
2019-01-10T12:17:54.061Z,15.10
2019-01-10T12:20:24.867Z,14.20
2019-01-10T12:22:35.687Z,16.53
2019-01-10T12:24:46.476Z,13.60
2019-01-10T12:26:57.316Z,15.80
2019-01-10T12:29:08.198Z,15.03
2019-01-10T12:31:19.024Z,15.80
2019-01-10T12:33:29.872Z,12.47
2019-01-10T12:35:40.664Z,12.80
2019-01-10T12:37:51.580Z,13.43
2019-01-10T12:40:44.029Z,14.27
2019-01-10T12:42:54.846Z,14.97
2019-01-10T12:45:47.307Z,13.17
2019-01-10T12:47:58.155Z,11.97
2019-01-10T12:50:50.580Z,9.60
2019-01-10T12:55:20.071Z,11.73
2019-01-10T12:57:30.896Z,10.40
2019-01-10T12:59:41.721Z,10.30
2019-01-10T13:01:52.535Z,12.23
2019-01-10T13:04:03.349Z,9.27
2019-01-10T13:06:14.160Z,11.67
2019-01-10T13:08:24.986Z,9.67
2019-01-10T13:10:35.804Z,13.23
2019-01-10T13:13:28.301Z,13.70
2019-01-10T13:15:39.072Z,13.87
2019-01-10T13:17:49.869Z,11.83
2019-01-10T13:20:00.688Z,9.37
2019-01-10T13:22:11.595Z,12.23
2019-01-10T13:24:22.417Z,13.33
2019-01-10T13:26:33.197Z,8.93
2019-01-10T13:28:44.032Z,8.73
2019-01-10T13:30:54.861Z,8.57
2019-01-10T13:33:05.778Z,8.60
2019-01-10T13:35:16.712Z,7.20
2019-01-10T13:37:27.529Z,6.67
2019-01-10T13:39:38.348Z,7.13
2019-01-10T13:41:49.164Z,7.90
2019-01-10T13:44:00.083Z,8.07
2019-01-10T13:46:11.012Z,7.00
2019-01-10T13:48:21.820Z,6.67
2019-01-10T13:50:32.747Z,7.00
2019-01-10T13:52:43.636Z,9.47
2019-01-10T13:54:54.459Z,6.57
2019-01-10T13:57:05.304Z,7.07
2019-01-10T13:59:16.114Z,8.43
2019-01-10T14:01:27.062Z,6.60
2019-01-10T14:03:37.935Z,8.43
2019-01-10T14:05:48.861Z,8.10
2019-01-10T14:07:59.765Z,6.57
2019-01-10T14:10:52.229Z,6.47
2019-01-10T14:13:03.144Z,7.90
2019-01-10T14:15:33.848Z,9.20
2019-01-10T14:17:44.859Z,10.53
2019-01-10T14:22:28.132Z,9.33
2019-01-10T14:24:38.989Z,7.40
2019-01-10T14:26:49.782Z,8.80
2019-01-10T14:29:00.697Z,7.63
2019-01-10T14:31:11.662Z,9.00
2019-01-10T14:33:22.506Z,7.30
2019-01-10T14:35:33.440Z,8.93
2019-01-10T14:37:44.380Z,11.07
2019-01-10T14:39:55.184Z,7.30
2019-01-10T14:42:06.022Z,6.20
2019-01-10T14:44:16.826Z,8.40
2019-01-10T14:46:27.639Z,9.17
2019-01-10T14:48:38.449Z,5.13
2019-01-10T14:50:49.268Z,8.10
2019-01-10T14:53:00.122Z,6.70
2019-01-10T14:55:52.617Z,5.43
2019-01-10T14:58:45.082Z,6.53
2019-01-10T15:00:55.862Z,5.40
2019-01-10T15:03:06.798Z,6.10
2019-01-10T15:05:59.262Z,5.70
2019-01-10T15:08:10.185Z,6.20
2019-01-10T15:10:21.085Z,6.00
2019-01-10T15:12:31.989Z,7.03
2019-01-10T15:14:42.816Z,5.40
2019-01-10T15:16:53.647Z,6.17
2019-01-10T15:19:04.583Z,5.57
2019-01-10T15:21:15.382Z,5.00
2019-01-10T15:23:26.204Z,5.27
2019-01-10T15:25:37.037Z,4.13
2019-01-10T15:27:47.839Z,5.97
2019-01-10T15:29:58.679Z,5.83
2019-01-10T15:32:09.470Z,7.00
2019-01-10T15:34:20.307Z,6.70
2019-01-10T15:36:31.231Z,5.83
2019-01-10T15:38:42.032Z,7.53
2019-01-10T15:40:52.833Z,7.27
2019-01-10T15:43:03.838Z,6.20
2019-01-10T15:45:14.869Z,7.63
2019-01-10T15:47:25.795Z,6.30
2019-01-10T15:49:36.625Z,6.43
2019-01-10T15:51:47.432Z,7.00
2019-01-10T15:53:58.234Z,6.57
2019-01-10T15:56:09.071Z,7.80
2019-01-10T15:58:19.874Z,6.13
2019-01-10T16:00:30.701Z,5.60
2019-01-10T16:02:41.629Z,9.23
2019-01-10T16:04:52.437Z,9.53
2019-01-10T16:07:03.292Z,5.90
2019-01-10T16:09:14.195Z,6.07
2019-01-10T16:11:25.030Z,6.87
2019-01-10T16:13:35.957Z,6.73
2019-01-10T16:15:46.787Z,5.13
2019-01-10T16:17:57.615Z,6.13
2019-01-10T16:20:50.103Z,6.00
2019-01-10T16:23:01.000Z,6.00
2019-01-10T16:25:53.444Z,5.47
2019-01-10T16:28:04.362Z,6.73
2019-01-10T16:30:35.033Z,7.83
2019-01-10T16:32:45.848Z,6.67
2019-01-10T16:34:56.784Z,6.23
2019-01-10T16:37:07.619Z,6.87
2019-01-10T16:39:18.461Z,5.97
2019-01-10T16:41:29.376Z,9.40
2019-01-10T16:43:40.194Z,7.00
2019-01-10T16:45:51.007Z,6.77
2019-01-10T16:48:43.492Z,6.50
2019-01-10T16:50:54.291Z,7.27
2019-01-10T16:53:05.152Z,6.20
2019-01-10T16:55:16.277Z,7.00
2019-01-10T16:57:27.096Z,7.23
2019-01-10T16:59:37.917Z,7.93
2019-01-10T17:01:48.714Z,5.20
2019-01-10T17:03:59.540Z,7.23
2019-01-10T17:06:10.343Z,7.17
2019-01-10T17:08:21.148Z,8.07
2019-01-10T17:10:32.179Z,5.57
2019-01-10T17:12:42.971Z,5.17
2019-01-10T17:14:53.835Z,6.03
2019-01-10T17:17:04.620Z,5.87
2019-01-10T17:19:15.431Z,6.80
2019-01-10T17:21:26.296Z,4.83
2019-01-10T17:23:37.097Z,8.47
2019-01-10T17:25:47.904Z,5.83
2019-01-10T17:27:58.717Z,4.33
2019-01-10T17:30:31.330Z,4.13
2019-01-10T17:32:42.137Z,6.33
2019-01-10T17:34:52.963Z,7.00
2019-01-10T17:37:03.885Z,5.67
2019-01-10T17:39:14.810Z,5.13
2019-01-10T17:41:25.640Z,4.40
2019-01-10T17:43:36.440Z,3.80
2019-01-10T17:45:47.410Z,3.90
2019-01-10T17:48:39.851Z,4.30
2019-01-10T17:50:50.678Z,5.10
2019-01-10T17:53:01.501Z,5.13
2019-01-10T17:55:53.962Z,4.37
2019-01-10T17:58:46.409Z,4.33
2019-01-10T18:00:57.272Z,5.03
2019-01-10T18:03:08.062Z,5.20
2019-01-10T18:05:18.966Z,9.17
2019-01-10T18:07:29.802Z,4.87
2019-01-10T18:09:40.612Z,4.73
2019-01-10T18:11:51.427Z,4.73
2019-01-10T18:14:02.232Z,7.30
2019-01-10T18:16:13.068Z,5.37
2019-01-10T18:18:23.983Z,4.87
2019-01-10T18:21:16.444Z,4.57
2019-01-10T18:23:27.294Z,5.03
2019-01-10T18:25:38.239Z,4.67
2019-01-10T18:28:30.699Z,4.97
2019-01-10T18:30:43.402Z,4.47
2019-01-10T18:32:54.274Z,4.83
2019-01-10T18:37:37.711Z,5.07
2019-01-10T18:39:48.557Z,4.40
2019-01-10T18:41:59.362Z,5.70
2019-01-10T18:44:10.215Z,6.70
2019-01-10T18:46:21.121Z,4.87
2019-01-10T18:48:31.954Z,6.63
2019-01-10T18:50:42.819Z,6.67
2019-01-10T18:52:53.728Z,6.47
2019-01-10T18:57:22.221Z,4.47
2019-01-10T18:59:33.079Z,5.23
2019-01-10T19:01:43.897Z,5.43
2019-01-10T19:03:54.703Z,6.53
2019-01-10T19:06:06.083Z,5.17
2019-01-10T19:08:18.312Z,6.47
2019-01-10T19:10:29.172Z,6.07
2019-01-10T19:12:39.983Z,7.13
2019-01-10T19:14:50.906Z,5.87
2019-01-10T19:17:01.766Z,5.13
2019-01-10T19:19:12.622Z,5.80
2019-01-10T19:21:23.446Z,5.50
2019-01-10T19:23:34.511Z,5.77
2019-01-10T19:25:45.340Z,5.87
2019-01-10T19:27:56.181Z,7.10
2019-01-10T19:30:48.666Z,6.33
2019-01-10T19:32:59.470Z,5.77
2019-01-10T19:35:10.581Z,6.53
2019-01-10T19:37:21.402Z,7.83
2019-01-10T19:39:32.202Z,8.43
2019-01-10T19:41:43.026Z,5.67
2019-01-10T19:43:53.840Z,7.90
2019-01-10T19:46:04.700Z,7.00
2019-01-10T19:48:15.552Z,6.40
2019-01-10T19:50:26.602Z,5.93
2019-01-10T19:52:37.440Z,6.03
2019-01-10T19:54:48.245Z,7.40
2019-01-10T19:56:59.112Z,4.73
2019-01-10T19:59:09.910Z,4.63
2019-01-10T20:03:53.094Z,6.97
2019-01-10T20:06:04.003Z,8.30
2019-01-10T20:08:14.856Z,6.83
2019-01-10T20:10:25.668Z,7.67
2019-01-10T20:12:36.493Z,5.07
2019-01-10T20:14:47.338Z,4.47
2019-01-10T20:16:58.246Z,5.47
2019-01-10T20:21:27.986Z,4.80
2019-01-10T20:23:38.837Z,5.90
2019-01-10T20:25:49.649Z,6.93
2019-01-10T20:28:00.514Z,8.27
2019-01-10T20:30:52.926Z,6.30
2019-01-10T20:33:03.868Z,8.10
2019-01-10T20:35:56.354Z,7.67
2019-01-10T20:38:07.410Z,6.90
2019-01-10T20:40:18.460Z,8.27
2019-01-10T20:42:29.301Z,10.00
2019-01-10T20:44:40.146Z,7.90
2019-01-10T20:46:51.047Z,8.23
2019-01-10T20:49:01.964Z,7.17
2019-01-10T20:51:12.791Z,6.53
2019-01-10T20:53:23.735Z,7.43
2019-01-10T20:55:34.660Z,6.07
2019-01-10T20:57:45.479Z,7.47
2019-01-10T20:59:56.340Z,8.03
2019-01-10T21:02:07.246Z,8.73
2019-01-10T21:04:18.106Z,7.97
2019-01-10T21:06:28.919Z,7.40
2019-01-10T21:08:39.731Z,8.07
2019-01-10T21:13:13.022Z,11.20
2019-01-10T21:16:05.477Z,11.90
2019-01-10T21:18:16.398Z,10.73
2019-01-10T21:20:27.447Z,8.33
2019-01-10T21:22:38.360Z,9.77
2019-01-10T21:24:49.172Z,9.97
2019-01-10T21:27:00.047Z,10.40
2019-01-10T21:29:52.703Z,8.80
2019-01-10T21:32:03.536Z,7.83
2019-01-10T21:34:14.363Z,8.63
2019-01-10T21:36:25.316Z,7.63
2019-01-10T21:38:36.106Z,7.37
2019-01-10T21:40:46.951Z,7.10
2019-01-10T21:42:57.787Z,7.33
2019-01-10T21:45:28.567Z,7.23
2019-01-10T21:47:39.503Z,8.53
2019-01-10T21:49:50.313Z,9.97
2019-01-10T21:52:01.173Z,11.20
2019-01-10T21:54:12.176Z,9.97
2019-01-10T21:56:22.995Z,8.13
2019-01-10T21:58:33.937Z,8.17
2019-01-10T22:00:44.743Z,9.80
2019-01-10T22:03:37.233Z,8.20
2019-01-10T22:05:48.133Z,8.93
2019-01-10T22:07:58.953Z,8.33
2019-01-10T22:10:51.423Z,10.87
2019-01-10T22:13:02.550Z,8.90
2019-01-10T22:15:55.031Z,10.80
2019-01-10T22:20:24.874Z,11.33
2019-01-10T22:22:35.682Z,13.43
2019-01-10T22:24:46.504Z,11.00
2019-01-10T22:26:57.298Z,9.20
2019-01-10T22:29:08.103Z,8.90
2019-01-10T22:31:18.902Z,9.33
2019-01-10T22:33:29.725Z,7.23
2019-01-10T22:35:40.762Z,8.83
2019-01-10T22:37:51.647Z,10.03
2019-01-10T22:40:44.131Z,7.90
2019-01-10T22:42:54.949Z,9.37
2019-01-10T22:45:47.413Z,7.63
2019-01-10T22:47:58.218Z,7.37
2019-01-10T22:50:50.681Z,8.47
2019-01-10T22:53:01.487Z,7.60
2019-01-10T22:55:53.943Z,10.63
2019-01-10T22:58:04.762Z,7.07
2019-01-10T23:03:17.167Z,8.20
2019-01-10T23:05:27.999Z,9.83
2019-01-10T23:07:38.788Z,7.73
2019-01-10T23:09:49.606Z,12.00
2019-01-10T23:12:00.411Z,8.83
2019-01-10T23:14:11.222Z,7.83
2019-01-10T23:16:22.244Z,8.40
2019-01-10T23:19:14.733Z,8.77
2019-01-10T23:21:25.643Z,11.13
2019-01-10T23:23:36.441Z,8.43
2019-01-10T23:26:07.132Z,8.23
2019-01-10T23:28:17.960Z,6.73
2019-01-10T23:31:09.026Z,8.20
2019-01-10T23:34:01.481Z,6.77
2019-01-10T23:36:12.449Z,6.07
2019-01-10T23:38:23.369Z,7.80
2019-01-10T23:40:34.218Z,6.27
2019-01-10T23:42:45.020Z,7.80
2019-01-10T23:44:55.835Z,6.87
2019-01-10T23:47:06.627Z,6.93
2019-01-10T23:49:17.440Z,9.63
2019-01-10T23:51:28.251Z,6.23
2019-01-10T23:53:39.079Z,6.90
2019-01-10T23:55:49.987Z,7.13
2019-01-10T23:58:00.845Z,10.30
